Time;durP1;ratioP1;P1;durP2;ratioP2;P2;SDS_P1;SDS_P2;PMS_P1;PMS_P2;Temp;Humidity;BMP_temperature;BMP_pressure;BME280_temperature;BME280_humidity;BME280_pressure;Samples;Min_cycle;Max_cycle;Signal;HPM_P1;HPM_P2
2022/09/30 00:02:48;;;;;;;11.52;5.68;;;;;10.10;95382.00;;;;8397823;28;20228;-70
2022/09/30 00:06:53;;;;;;;13.13;5.65;;;;;10.10;95388.00;;;;8398230;28;20245;-70
2022/09/30 00:11:03;;;;;;;11.68;5.82;;;;;10.00;95379.00;;;;8397631;28;20227;-69
2022/09/30 00:15:34;;;;;;;9.60;5.90;;;;;10.00;95364.00;;;;8397052;28;20228;-70
2022/09/30 00:20:10;;;;;;;8.77;5.50;;;;;9.90;95368.00;;;;8397277;28;20221;-70
2022/09/30 00:24:13;;;;;;;9.65;6.10;;;;;9.80;95386.00;;;;8397682;28;20637;-69
2022/09/30 00:28:51;;;;;;;12.20;5.65;;;;;9.70;95380.00;;;;8397148;28;20220;-70
2022/09/30 00:33:24;;;;;;;9.47;5.17;;;;;9.60;95381.00;;;;8398296;28;20216;-69
2022/09/30 00:37:28;;;;;;;13.25;5.75;;;;;9.60;95388.00;;;;8395332;28;20695;-69
2022/09/30 00:41:31;;;;;;;8.77;5.35;;;;;9.40;95378.00;;;;8397780;28;20672;-70
2022/09/30 00:46:05;;;;;;;12.90;6.03;;;;;9.30;95380.00;;;;8391820;28;20223;-70
2022/09/30 00:50:22;;;;;;;12.70;6.27;;;;;9.30;95382.00;;;;8396136;28;20224;-71
2022/09/30 00:54:47;;;;;;;9.35;5.90;;;;;9.30;95388.00;;;;8395365;28;20273;-71
2022/09/30 00:58:54;;;;;;;8.77;5.93;;;;;9.30;95407.00;;;;8396263;28;20219;-71
2022/09/30 01:08:17;;;;;;;9.73;6.00;;;;;9.10;95411.00;;;;8395673;28;20270;-71
2022/09/30 01:12:23;;;;;;;13.80;5.57;;;;;9.10;95418.00;;;;8395776;28;20212;-71
2022/09/30 01:17:00;;;;;;;10.10;5.15;;;;;9.00;95411.00;;;;8395476;28;20245;-71
2022/09/30 01:21:34;;;;;;;12.15;6.10;;;;;8.90;95414.00;;;;8394439;28;20228;-71
2022/09/30 01:26:09;;;;;;;10.23;5.90;;;;;8.90;95419.00;;;;8378674;28;20212;-71
2022/09/30 01:30:45;;;;;;;11.93;6.23;;;;;8.90;95421.00;;;;8382847;28;20224;-71
2022/09/30 01:34:58;;;;;;;11.90;6.73;;;;;8.90;95422.00;;;;8396282;28;20220;-71
2022/09/30 01:39:27;;;;;;;9.90;5.70;;;;;8.90;95433.00;;;;8394154;28;20251;-71
2022/09/30 01:44:11;;;;;;;16.10;6.73;;;;;8.90;95428.00;;;;8395442;28;20219;-71
2022/09/30 01:48:21;;;;;;;12.77;6.50;;;;;8.90;95432.00;;;;8394758;28;20226;-71
2022/09/30 01:52:38;;;;;;;14.37;6.57;;;;;8.90;95434.00;;;;8395504;28;20232;-71
2022/09/30 01:56:44;;;;;;;10.73;6.60;;;;;9.00;95431.00;;;;8393845;28;20243;-71
2022/09/30 02:01:21;;;;;;;11.13;5.80;;;;;9.00;95432.00;;;;8394665;28;20235;-71
2022/09/30 02:05:32;;;;;;;12.57;6.20;;;;;9.00;95430.00;;;;8394155;28;20224;-71
2022/09/30 02:09:59;;;;;;;12.55;6.18;;;;;9.00;95440.00;;;;8393323;28;20301;-71
2022/09/30 02:14:36;;;;;;;13.97;6.67;;;;;8.90;95443.00;;;;8361187;28;20212;-70
2022/09/30 02:18:43;;;;;;;16.23;6.57;;;;;9.00;95452.00;;;;8355353;28;20650;-71
2022/09/30 02:22:50;;;;;;;11.87;6.30;;;;;9.00;95452.00;;;;8361424;28;20227;-71
2022/09/30 02:27:27;;;;;;;13.30;6.57;;;;;9.00;95458.00;;;;8361453;28;20569;-71
2022/09/30 02:31:34;;;;;;;10.80;6.10;;;;;9.00;95447.00;;;;8348335;28;20649;-69
2022/09/30 02:36:10;;;;;;;11.60;6.10;;;;;9.00;95451.00;;;;8360192;28;20212;-68
2022/09/30 02:44:45;;;;;;;14.10;6.03;;;;;9.00;95439.00;;;;8360566;28;20550;-70
2022/09/30 02:48:59;;;;;;;12.85;6.55;;;;;9.00;95444.00;;;;8359719;28;20224;-69
2022/09/30 02:53:27;;;;;;;14.17;6.60;;;;;8.90;95436.00;;;;8360611;28;20220;-69
2022/09/30 02:58:04;;;;;;;11.15;5.85;;;;;8.90;95447.00;;;;8359749;28;20224;-69
2022/09/30 03:02:08;;;;;;;10.00;5.10;;;;;8.90;95450.00;;;;8377027;23;20569;-72
2022/09/30 03:06:13;;;;;;;16.63;6.23;;;;;8.80;95449.00;;;;8321834;28;20225;-71
2022/09/30 03:10:17;;;;;;;15.33;6.43;;;;;8.70;95459.00;;;;8328280;28;20292;-73
2022/09/30 03:14:40;;;;;;;15.67;5.87;;;;;8.50;95463.00;;;;8339068;28;20189;-72
2022/09/30 03:19:00;;;;;;;14.00;6.60;;;;;8.40;95451.00;;;;8341695;28;20203;-71
2022/09/30 03:23:34;;;;;;;8.53;5.77;;;;;8.30;95460.00;;;;8327326;28;20197;-72
2022/09/30 03:27:45;;;;;;;19.27;5.63;;;;;8.20;95459.00;;;;8341047;28;20893;-71
2022/09/30 03:31:59;;;;;;;22.10;5.40;;;;;8.10;95464.00;;;;8339402;28;20288;-72
2022/09/30 03:36:08;;;;;;;13.47;6.00;;;;;7.90;95471.00;;;;8336573;28;20201;-73
2022/09/30 03:40:17;;;;;;;11.80;6.00;;;;;7.70;95478.00;;;;8343449;28;20232;-71
2022/09/30 03:44:25;;;;;;;10.87;5.80;;;;;7.60;95475.00;;;;8346910;28;20932;-70
2022/09/30 03:48:30;;;;;;;10.67;5.67;;;;;7.40;95468.00;;;;8344113;28;20204;-71
2022/09/30 03:52:35;;;;;;;14.00;5.70;;;;;7.30;95473.00;;;;8347383;28;20201;-73
2022/09/30 03:56:41;;;;;;;9.00;5.87;;;;;7.20;95481.00;;;;8345603;28;20193;-71
2022/09/30 04:00:48;;;;;;;19.40;6.50;;;;;7.10;95483.00;;;;8337469;28;20787;-71
2022/09/30 04:04:51;;;;;;;12.77;5.80;;;;;7.10;95483.00;;;;8345038;28;21169;-71
2022/09/30 04:08:56;;;;;;;9.87;6.10;;;;;6.90;95491.00;;;;8349409;28;21681;-71
2022/09/30 04:12:59;;;;;;;93.47;10.30;;;;;6.90;95497.00;;;;8379062;28;20204;-70
2022/09/30 04:17:03;;;;;;;9.73;5.43;;;;;6.80;95502.00;;;;8374198;28;20200;-71
2022/09/30 04:21:07;;;;;;;12.17;6.07;;;;;6.70;95508.00;;;;8377158;28;20239;-71
2022/09/30 04:25:12;;;;;;;10.20;6.00;;;;;6.60;95509.00;;;;8374291;28;20219;-71
2022/09/30 04:29:15;;;;;;;13.70;5.77;;;;;6.60;95513.00;;;;8372856;28;20844;-70
2022/09/30 04:33:18;;;;;;;23.60;6.47;;;;;6.60;95507.00;;;;8370620;28;20238;-70
2022/09/30 04:37:22;;;;;;;16.07;6.23;;;;;6.50;95511.00;;;;8374372;28;20199;-70
2022/09/30 04:41:28;;;;;;;43.20;7.60;;;;;6.40;95503.00;;;;8367078;28;20224;-69
2022/09/30 04:45:31;;;;;;;43.80;7.57;;;;;6.30;95518.00;;;;8377668;28;20196;-71
2022/09/30 04:49:34;;;;;;;21.80;6.03;;;;;6.30;95514.00;;;;8370300;28;20242;-69
2022/09/30 04:53:38;;;;;;;53.23;7.63;;;;;6.20;95519.00;;;;8364941;28;20192;-70
2022/09/30 04:57:45;;;;;;;11.27;5.13;;;;;6.20;95512.00;;;;8374849;28;20262;-68
2022/09/30 05:01:48;;;;;;;85.77;8.77;;;;;6.10;95527.00;;;;8376530;28;20235;-68
2022/09/30 05:05:51;;;;;;;159.33;11.83;;;;;6.00;95528.00;;;;8379875;28;20196;-69
2022/09/30 05:09:54;;;;;;;68.63;8.00;;;;;6.00;95524.00;;;;8368272;28;20505;-69
2022/09/30 05:13:58;;;;;;;139.43;11.33;;;;;5.90;95531.00;;;;8371887;28;20204;-69
2022/09/30 05:18:01;;;;;;;97.53;11.90;;;;;5.90;95537.00;;;;8375702;28;21181;-70
2022/09/30 05:22:05;;;;;;;38.87;6.43;;;;;6.00;95545.00;;;;8369821;28;20569;-66
2022/09/30 05:26:08;;;;;;;76.83;9.07;;;;;6.00;95551.00;;;;8369742;28;20208;-69
2022/09/30 05:30:16;;;;;;;127.13;11.37;;;;;6.00;95561.00;;;;8371300;28;20234;-67
2022/09/30 05:34:20;;;;;;;85.23;9.40;;;;;5.90;95571.00;;;;8378738;28;20199;-67
2022/09/30 05:38:23;;;;;;;63.27;7.90;;;;;6.00;95568.00;;;;8375699;28;20197;-67
2022/09/30 05:42:26;;;;;;;64.67;8.70;;;;;5.90;95578.00;;;;8368230;28;20228;-68
2022/09/30 05:46:31;;;;;;;86.27;9.40;;;;;5.90;95586.00;;;;8366496;28;20246;-67
2022/09/30 05:50:36;;;;;;;84.70;10.83;;;;;5.90;95591.00;;;;8374462;28;20284;-67
2022/09/30 05:54:41;;;;;;;103.07;10.10;;;;;5.90;95586.00;;;;8369226;28;20640;-66
2022/09/30 05:58:46;;;;;;;19.20;6.63;;;;;6.00;95592.00;;;;8367399;28;20207;-67
2022/09/30 06:02:52;;;;;;;94.73;12.30;;;;;6.00;95596.00;;;;8363931;28;20277;-68
2022/09/30 06:06:57;;;;;;;227.07;15.47;;;;;6.10;95605.00;;;;8366433;28;20204;-68
2022/09/30 06:11:00;;;;;;;121.83;12.57;;;;;6.20;95613.00;;;;8361521;28;20207;-68
2022/09/30 06:15:03;;;;;;;19.73;6.87;;;;;6.20;95625.00;;;;8363696;28;20276;-68
2022/09/30 06:19:08;;;;;;;10.90;6.33;;;;;6.30;95626.00;;;;8359711;28;20208;-67
2022/09/30 06:23:11;;;;;;;13.73;5.87;;;;;6.50;95626.00;;;;8377655;28;20281;-68
2022/09/30 06:27:14;;;;;;;10.07;6.00;;;;;6.70;95628.00;;;;8360851;28;20208;-68
2022/09/30 06:31:17;;;;;;;11.43;7.70;;;;;6.90;95633.00;;;;8356513;28;20300;-67
2022/09/30 06:35:23;;;;;;;11.37;5.80;;;;;7.10;95626.00;;;;8372395;28;20283;-68
2022/09/30 06:39:27;;;;;;;15.80;8.90;;;;;7.30;95638.00;;;;8377781;28;20192;-68
2022/09/30 06:43:30;;;;;;;58.83;17.87;;;;;7.70;95647.00;;;;8360300;28;20288;-69
2022/09/30 06:47:41;;;;;;;68.33;17.23;;;;;8.10;95638.00;;;;8366549;28;20292;-67
2022/09/30 06:52:02;;;;;;;49.37;16.60;;;;;8.50;95648.00;;;;8361178;28;20197;-68
2022/09/30 06:56:06;;;;;;;67.67;19.57;;;;;8.90;95653.00;;;;8364852;28;20962;-68
2022/09/30 07:00:10;;;;;;;65.47;18.90;;;;;9.20;95654.00;;;;8372176;28;20227;-67
2022/09/30 07:04:13;;;;;;;77.00;17.60;;;;;9.60;95667.00;;;;8372310;28;20224;-66
2022/09/30 07:08:18;;;;;;;70.82;18.50;;;;;9.70;95671.00;;;;8381999;28;20207;-68
2022/09/30 07:12:21;;;;;;;87.87;18.60;;;;;9.70;95676.00;;;;8376253;28;20215;-67
2022/09/30 07:16:25;;;;;;;64.80;17.90;;;;;10.00;95679.00;;;;8377159;28;20200;-68
2022/09/30 07:20:28;;;;;;;56.03;16.55;;;;;10.20;95688.00;;;;8367007;28;20251;-67
2022/09/30 07:24:33;;;;;;;54.97;16.50;;;;;10.40;95684.00;;;;8377567;28;20196;-69
2022/09/30 07:28:38;;;;;;;56.97;16.43;;;;;10.60;95687.00;;;;8376608;28;20689;-67
2022/09/30 07:32:42;;;;;;;39.00;13.27;;;;;10.80;95683.00;;;;8384884;28;20204;-69
2022/09/30 07:36:45;;;;;;;37.60;14.80;;;;;10.90;95692.00;;;;8376204;28;20228;-67
2022/09/30 07:40:58;;;;;;;33.05;13.80;;;;;10.90;95716.00;;;;8385218;28;20216;-68
2022/09/30 07:45:01;;;;;;;30.70;13.93;;;;;10.90;95702.00;;;;8369447;28;20208;-69
2022/09/30 07:49:06;;;;;;;31.02;13.77;;;;;10.80;95701.00;;;;8381857;28;20196;-67
2022/09/30 07:53:09;;;;;;;31.55;14.43;;;;;11.00;95719.00;;;;8383712;28;20707;-67
2022/09/30 07:57:14;;;;;;;32.45;14.20;;;;;11.10;95722.00;;;;8383088;28;20212;-67
2022/09/30 08:01:17;;;;;;;30.88;14.90;;;;;11.10;95723.00;;;;8384181;28;20588;-68
2022/09/30 08:05:20;;;;;;;23.88;14.13;;;;;11.30;95728.00;;;;8365114;28;20712;-67
2022/09/30 08:09:25;;;;;;;27.80;13.75;;;;;11.40;95739.00;;;;8382479;28;20207;-68
2022/09/30 08:13:31;;;;;;;25.80;13.38;;;;;11.60;95735.00;;;;8376149;28;20193;-67
2022/09/30 08:17:34;;;;;;;26.80;12.98;;;;;11.80;95736.00;;;;8369235;28;20192;-68
2022/09/30 08:21:37;;;;;;;21.65;12.40;;;;;12.00;95740.00;;;;8381199;28;20225;-67
2022/09/30 08:25:41;;;;;;;26.00;12.18;;;;;12.10;95736.00;;;;8383994;28;20191;-68
2022/09/30 08:29:45;;;;;;;21.58;11.73;;;;;12.30;95749.00;;;;8381523;28;20206;-67
2022/09/30 08:33:58;;;;;;;21.58;11.65;;;;;12.60;95746.00;;;;8368180;28;20200;-67
2022/09/30 08:38:01;;;;;;;17.67;10.95;;;;;12.70;95750.00;;;;8384850;28;20890;-68
2022/09/30 08:42:15;;;;;;;17.95;10.55;;;;;12.90;95759.00;;;;8380736;28;20530;-67
2022/09/30 08:46:46;;;;;;;17.30;10.77;;;;;13.20;95760.00;;;;8382441;28;20214;-68
2022/09/30 08:51:00;;;;;;;16.20;10.50;;;;;13.50;95763.00;;;;8375016;28;20553;-68
2022/09/30 08:55:05;;;;;;;18.40;10.52;;;;;14.00;95769.00;;;;8383822;28;20195;-68
2022/09/30 08:59:21;;;;;;;16.02;9.60;;;;;14.40;95768.00;;;;8370882;28;20690;-67
2022/09/30 09:03:29;;;;;;;14.40;9.57;;;;;14.90;95776.00;;;;8382936;28;20228;-69
2022/09/30 09:07:43;;;;;;;11.95;8.00;;;;;15.50;95776.00;;;;8370934;28;20204;-67
2022/09/30 09:12:14;;;;;;;11.57;7.38;;;;;16.20;95775.00;;;;8360146;28;20200;-70
2022/09/30 09:16:27;;;;;;;9.73;7.78;;;;;16.90;95771.00;;;;8365520;28;20196;-68
2022/09/30 09:20:36;;;;;;;12.65;7.50;;;;;17.30;95774.00;;;;8373638;28;20630;-69
2022/09/30 09:24:44;;;;;;;6.68;4.82;;;;;17.20;95776.00;;;;8359838;28;20224;-68
2022/09/30 09:29:00;;;;;;;4.30;2.92;;;;;17.10;95776.00;;;;8367285;28;20213;-68
2022/09/30 09:33:21;;;;;;;8.48;3.10;;;;;16.80;95773.00;;;;8365055;28;20192;-68
2022/09/30 09:42:02;;;;;;;6.10;3.70;;;;;17.30;95778.00;;;;8362441;28;20235;-67
2022/09/30 09:46:15;;;;;;;4.35;3.28;;;;;17.70;95775.00;;;;8363803;28;20200;-67
2022/09/30 09:50:23;;;;;;;4.60;3.58;;;;;18.20;95775.00;;;;8366134;28;20214;-68
2022/09/30 09:54:29;;;;;;;3.67;3.30;;;;;18.20;95778.00;;;;8370531;28;20196;-70
2022/09/30 09:58:33;;;;;;;3.05;2.85;;;;;18.00;95786.00;;;;8371425;28;20198;-68
2022/09/30 10:02:37;;;;;;;3.33;3.00;;;;;17.90;95787.00;;;;8372479;28;20562;-69
2022/09/30 10:06:50;;;;;;;4.25;3.03;;;;;17.70;95796.00;;;;8360463;28;20283;-68
2022/09/30 10:10:59;;;;;;;4.00;2.63;;;;;17.60;95800.00;;;;8374123;28;20284;-69
2022/09/30 10:15:18;;;;;;;4.55;2.90;;;;;17.80;95809.00;;;;8374056;28;20196;-69
2022/09/30 10:19:25;;;;;;;3.22;2.90;;;;;17.70;95811.00;;;;8360965;28;20208;-69
2022/09/30 10:23:31;;;;;;;4.03;2.20;;;;;17.50;95804.00;;;;8376109;28;20224;-67
2022/09/30 10:27:36;;;;;;;3.38;3.05;;;;;17.50;95805.00;;;;8366190;28;20193;-70
2022/09/30 10:31:42;;;;;;;2.72;2.53;;;;;17.50;95808.00;;;;8366695;28;20301;-68
2022/09/30 10:36:11;;;;;;;2.88;2.58;;;;;17.70;95819.00;;;;8359928;28;20794;-68
2022/09/30 10:40:18;;;;;;;4.20;2.72;;;;;18.00;95824.00;;;;8362998;28;20192;-67
2022/09/30 10:44:24;;;;;;;2.58;2.38;;;;;18.50;95818.00;;;;8374321;28;20719;-69
2022/09/30 10:48:33;;;;;;;2.05;1.95;;;;;19.10;95827.00;;;;8343630;28;20274;-69
2022/09/30 10:52:43;;;;;;;2.38;2.28;;;;;19.30;95829.00;;;;8370362;28;20222;-70
2022/09/30 10:56:52;;;;;;;2.63;2.42;;;;;19.40;95845.00;;;;8351952;28;20223;-70
2022/09/30 11:01:04;;;;;;;2.40;2.30;;;;;19.60;95837.00;;;;8349840;28;20224;-67
2022/09/30 11:05:16;;;;;;;2.60;2.40;;;;;19.90;95839.00;;;;8368949;28;20219;-67
2022/09/30 11:09:27;;;;;;;4.60;2.92;;;;;20.20;95842.00;;;;8370320;28;20224;-69
2022/09/30 11:13:36;;;;;;;3.22;2.92;;;;;20.30;95843.00;;;;8381512;28;20227;-67
2022/09/30 11:17:49;;;;;;;3.28;2.40;;;;;20.00;95837.00;;;;8365656;28;20715;-67
2022/09/30 11:21:56;;;;;;;2.50;2.28;;;;;20.20;95836.00;;;;8358100;28;20281;-68
2022/09/30 11:26:09;;;;;;;4.22;2.70;;;;;20.30;95829.00;;;;8351502;28;20669;-68
2022/09/30 11:30:19;;;;;;;3.33;2.20;;;;;20.30;95835.00;;;;8364156;28;20217;-68
2022/09/30 11:34:40;;;;;;;2.05;1.95;;;;;20.20;95838.00;;;;8360519;28;20235;-69
2022/09/30 11:39:00;;;;;;;5.05;2.10;;;;;20.10;95834.00;;;;8375327;28;20220;-67
2022/09/30 11:43:14;;;;;;;2.28;2.13;;;;;20.10;95826.00;;;;8372045;28;20232;-68
2022/09/30 11:47:49;;;;;;;3.35;2.10;;;;;19.70;95820.00;;;;8370446;28;20335;-71
2022/09/30 11:52:02;;;;;;;2.30;2.10;;;;;19.70;95828.00;;;;8382609;28;20215;-68
2022/09/30 11:56:15;;;;;;;2.60;2.03;;;;;19.60;95829.00;;;;8371425;28;20228;-69
2022/09/30 12:00:19;;;;;;;2.78;2.30;;;;;19.60;95830.00;;;;8373691;28;20231;-69
2022/09/30 12:04:30;;;;;;;2.25;2.15;;;;;19.70;95829.00;;;;8376427;28;20294;-69
2022/09/30 12:08:37;;;;;;;2.22;1.88;;;;;19.90;95837.00;;;;8378154;28;20232;-69
2022/09/30 12:12:42;;;;;;;3.25;1.80;;;;;20.10;95826.00;;;;8367033;28;20223;-70
2022/09/30 12:16:49;;;;;;;2.08;1.88;;;;;20.20;95830.00;;;;8356194;28;20220;-68
2022/09/30 12:20:57;;;;;;;2.60;1.90;;;;;20.30;95845.00;;;;8367271;28;20281;-68
2022/09/30 12:25:11;;;;;;;2.80;1.80;;;;;20.50;95837.00;;;;8363588;28;20313;-69
2022/09/30 12:33:56;;;;;;;2.05;1.88;;;;;20.70;95835.00;;;;8368974;28;20227;-68
2022/09/30 12:38:13;;;;;;;1.90;1.80;;;;;20.70;95847.00;;;;8384268;28;20227;-68
2022/09/30 12:42:44;;;;;;;1.70;1.60;;;;;20.60;95845.00;;;;8378099;28;20819;-69
2022/09/30 12:47:15;;;;;;;2.35;1.73;;;;;20.50;95846.00;;;;8357991;28;20236;-69
2022/09/30 12:51:25;;;;;;;3.15;1.92;;;;;20.50;95840.00;;;;8372856;28;20224;-71
2022/09/30 12:55:31;;;;;;;1.90;1.80;;;;;20.50;95830.00;;;;8374410;28;20224;-67
2022/09/30 12:59:44;;;;;;;3.28;1.80;;;;;20.40;95829.00;;;;8376136;28;20282;-71
2022/09/30 13:03:53;;;;;;;1.98;1.80;;;;;20.40;95821.00;;;;8371444;28;20224;-71
2022/09/30 13:08:37;;;;;;;1.80;1.70;;;;;20.40;95812.00;;;;8367083;28;20225;-69
2022/09/30 13:12:43;;;;;;;1.67;1.58;;;;;20.40;95808.00;;;;8376618;28;20224;-70
2022/09/30 13:17:19;;;;;;;2.08;1.90;;;;;20.40;95816.00;;;;8378516;28;20617;-71
2022/09/30 13:21:23;;;;;;;1.80;1.70;;;;;20.40;95816.00;;;;8381400;28;20228;-71
2022/09/30 13:25:27;;;;;;;1.83;1.65;;;;;20.60;95821.00;;;;8380182;28;20243;-71
2022/09/30 13:29:47;;;;;;;2.03;1.70;;;;;20.60;95817.00;;;;8375601;28;20223;-70
2022/09/30 13:34:10;;;;;;;1.92;1.83;;;;;20.50;95822.00;;;;8377564;28;20290;-72
2022/09/30 13:38:17;;;;;;;1.70;1.60;;;;;20.50;95817.00;;;;8353363;28;20224;-69
2022/09/30 13:42:25;;;;;;;1.63;1.52;;;;;20.40;95828.00;;;;8373894;28;20227;-72
2022/09/30 13:46:34;;;;;;;1.80;1.70;;;;;20.30;95835.00;;;;8381361;28;20685;-70
2022/09/30 13:50:45;;;;;;;2.25;1.98;;;;;20.40;95838.00;;;;8372089;28;20612;-72
2022/09/30 13:54:50;;;;;;;1.77;1.67;;;;;20.40;95833.00;;;;8351988;28;20593;-73
2022/09/30 13:59:28;;;;;;;2.00;1.90;;;;;20.20;95842.00;;;;8375914;28;20213;-69
2022/09/30 14:03:57;;;;;;;1.90;1.80;;;;;20.00;95850.00;;;;8366622;28;20216;-71
2022/09/30 14:08:20;;;;;;;2.10;1.98;;;;;19.80;95859.00;;;;8371349;28;20281;-70
2022/09/30 14:12:34;;;;;;;2.70;2.50;;;;;19.50;95856.00;;;;8377061;28;20235;-71
2022/09/30 14:17:04;;;;;;;2.40;2.00;;;;;19.30;95853.00;;;;8364203;28;20231;-69
2022/09/30 14:21:22;;;;;;;2.10;2.00;;;;;19.20;95856.00;;;;8362843;28;20858;-72
2022/09/30 14:25:33;;;;;;;1.90;1.80;;;;;19.20;95854.00;;;;8381187;28;20232;-70
2022/09/30 14:29:47;;;;;;;2.63;2.10;;;;;19.20;95850.00;;;;8376011;28;20240;-69
2022/09/30 14:33:50;;;;;;;1.80;1.70;;;;;19.20;95847.00;;;;8365128;28;20219;-70
2022/09/30 14:37:56;;;;;;;2.13;2.03;;;;;19.20;95843.00;;;;8374307;28;20230;-72
2022/09/30 14:42:02;;;;;;;1.90;1.80;;;;;19.20;95848.00;;;;8375342;28;20224;-69
2022/09/30 14:46:07;;;;;;;4.22;2.00;;;;;19.10;95858.00;;;;8380206;28;20265;-74
2022/09/30 14:50:15;;;;;;;3.10;2.33;;;;;18.90;95856.00;;;;8379156;28;20277;-70
2022/09/30 14:54:20;;;;;;;3.05;2.03;;;;;18.80;95859.00;;;;8370079;28;20269;-69
2022/09/30 14:58:29;;;;;;;2.53;2.00;;;;;18.70;95863.00;;;;8380327;28;20219;-69
2022/09/30 15:02:32;;;;;;;1.90;1.80;;;;;18.60;95859.00;;;;8377672;28;20228;-69
2022/09/30 15:06:39;;;;;;;1.90;1.80;;;;;18.50;95867.00;;;;8360737;28;20238;-70
2022/09/30 15:10:48;;;;;;;1.85;1.75;;;;;18.40;95874.00;;;;8379715;28;20352;-71
2022/09/30 15:14:54;;;;;;;2.17;1.98;;;;;18.20;95877.00;;;;8373411;28;20224;-71
2022/09/30 15:18:58;;;;;;;2.28;1.80;;;;;18.10;95890.00;;;;8365256;28;20273;-70
2022/09/30 15:23:05;;;;;;;2.42;2.22;;;;;18.00;95896.00;;;;8364339;28;20220;-72
2022/09/30 15:27:16;;;;;;;3.67;2.05;;;;;17.90;95901.00;;;;8374029;28;20255;-71
2022/09/30 15:31:24;;;;;;;2.95;2.00;;;;;17.80;95899.00;;;;8378677;28;20224;-73
2022/09/30 15:35:28;;;;;;;4.22;2.40;;;;;17.70;95899.00;;;;8376772;28;20231;-72
2022/09/30 15:43:52;;;;;;;2.92;2.42;;;;;17.40;95910.00;;;;8372465;28;20243;-71
2022/09/30 15:47:59;;;;;;;7.88;7.20;;;;;17.30;95905.00;;;;8376663;28;20249;-72
2022/09/30 15:52:21;;;;;;;4.07;2.58;;;;;17.20;95916.00;;;;8363883;28;20228;-72
2022/09/30 15:56:30;;;;;;;2.85;2.30;;;;;17.10;95914.00;;;;8373568;28;20665;-72
2022/09/30 16:00:38;;;;;;;4.55;4.15;;;;;17.10;95911.00;;;;8367279;28;20235;-71
2022/09/30 16:04:44;;;;;;;2.40;2.30;;;;;17.00;95917.00;;;;8374861;28;20700;-72
2022/09/30 16:08:52;;;;;;;2.53;2.30;;;;;17.00;95914.00;;;;8376125;28;20232;-71
2022/09/30 16:12:55;;;;;;;2.45;2.35;;;;;17.00;95917.00;;;;8370669;28;20819;-73
2022/09/30 16:17:01;;;;;;;6.72;6.10;;;;;17.00;95919.00;;;;8368494;28;20232;-74
2022/09/30 16:21:06;;;;;;;2.63;2.42;;;;;16.90;95916.00;;;;8367604;28;20243;-75
2022/09/30 16:25:16;;;;;;;2.40;2.20;;;;;16.80;95916.00;;;;8367665;28;20235;-76
2022/09/30 16:29:20;;;;;;;96.35;53.78;;;;;16.80;95923.00;;;;8365020;28;20224;-75
2022/09/30 16:33:23;;;;;;;2.15;2.05;;;;;16.60;95919.00;;;;8366039;28;20235;-75
2022/09/30 16:37:27;;;;;;;2.85;2.10;;;;;16.50;95925.00;;;;8376049;28;20228;-74
2022/09/30 16:41:31;;;;;;;3.00;2.10;;;;;16.50;95926.00;;;;8382302;28;20232;-75
2022/09/30 16:45:34;;;;;;;1.90;1.80;;;;;16.40;95936.00;;;;8380070;28;20281;-74
2022/09/30 16:49:41;;;;;;;1.83;1.73;;;;;16.30;95920.00;;;;8380953;28;20227;-75
2022/09/30 16:53:46;;;;;;;5.82;2.15;;;;;16.20;95927.00;;;;8359077;28;20639;-74
2022/09/30 16:57:49;;;;;;;4.47;1.90;;;;;16.10;95921.00;;;;8380545;28;20224;-74
2022/09/30 17:01:53;;;;;;;2.28;2.08;;;;;15.90;95935.00;;;;8372820;28;20224;-75
2022/09/30 17:05:56;;;;;;;2.08;1.90;;;;;15.50;95927.00;;;;8369165;28;20234;-76
2022/09/30 17:10:01;;;;;;;2.33;2.13;;;;;15.20;95928.00;;;;8373022;28;20232;-77
2022/09/30 17:14:05;;;;;;;2.28;2.05;;;;;14.70;95929.00;;;;8355800;28;20232;-75
2022/09/30 17:18:10;;;;;;;3.83;2.50;;;;;14.30;95935.00;;;;8369062;28;20294;-76
2022/09/30 17:22:13;;;;;;;4.00;2.83;;;;;13.90;95948.00;;;;8365926;28;20238;-75
2022/09/30 17:26:18;;;;;;;5.35;2.90;;;;;13.60;95946.00;;;;8364772;28;20328;-76
2022/09/30 17:30:22;;;;;;;2.90;2.70;;;;;13.40;95940.00;;;;8365273;28;20281;-75
2022/09/30 17:34:26;;;;;;;3.00;2.80;;;;;13.10;95934.00;;;;8368083;28;20235;-76
2022/09/30 17:38:30;;;;;;;3.83;3.42;;;;;12.90;95955.00;;;;8370175;28;20218;-77
2022/09/30 17:47:00;;;;;;;14.63;4.25;;;;;12.40;95964.00;;;;8352797;28;20246;-76
2022/09/30 17:51:04;;;;;;;11.55;4.53;;;;;12.20;95962.00;;;;8370810;28;20238;-75
2022/09/30 17:55:08;;;;;;;7.45;4.22;;;;;12.00;95963.00;;;;8366452;28;20234;-77
2022/09/30 17:59:13;;;;;;;11.75;7.20;;;;;11.80;95964.00;;;;8371764;28;20235;-75
2022/09/30 18:03:17;;;;;;;8.57;6.10;;;;;11.60;95971.00;;;;8368916;28;20238;-76
2022/09/30 18:07:24;;;;;;;8.63;5.70;;;;;11.50;95979.00;;;;8368854;28;20758;-76
2022/09/30 18:11:29;;;;;;;10.02;6.93;;;;;11.40;95973.00;;;;8372724;28;20230;-74
2022/09/30 18:15:34;;;;;;;11.13;7.18;;;;;11.30;95973.00;;;;8363786;28;20564;-74
2022/09/30 18:19:37;;;;;;;10.05;6.50;;;;;11.20;95980.00;;;;8374120;28;20269;-74
2022/09/30 18:23:42;;;;;;;12.38;6.75;;;;;11.20;95986.00;;;;8366624;28;20224;-76
2022/09/30 18:27:45;;;;;;;9.13;5.97;;;;;11.20;95989.00;;;;8357808;28;20244;-75
2022/09/30 18:31:51;;;;;;;10.40;6.20;;;;;11.30;95990.00;;;;8365166;28;20218;-75
2022/09/30 18:35:55;;;;;;;15.02;7.57;;;;;11.30;95986.00;;;;8371135;28;20229;-73
2022/09/30 18:39:59;;;;;;;9.45;6.18;;;;;11.20;95988.00;;;;8367455;28;20236;-75
2022/09/30 18:44:02;;;;;;;11.48;6.55;;;;;11.10;95972.00;;;;8354658;28;20226;-74
2022/09/30 18:48:07;;;;;;;11.25;6.55;;;;;11.00;95984.00;;;;8364666;28;20236;-72
2022/09/30 18:52:10;;;;;;;10.40;6.75;;;;;11.00;95991.00;;;;8362780;28;20258;-74
2022/09/30 18:56:13;;;;;;;12.48;8.38;;;;;10.90;95986.00;;;;8374643;28;20592;-75
2022/09/30 19:00:17;;;;;;;11.98;8.15;;;;;10.90;95993.00;;;;8366772;28;20258;-74
2022/09/30 19:04:22;;;;;;;12.23;8.02;;;;;10.90;95991.00;;;;8374439;28;20229;-73
2022/09/30 19:08:25;;;;;;;14.18;8.40;;;;;10.80;95979.00;;;;8378659;28;20224;-74
2022/09/30 19:12:34;;;;;;;12.90;8.40;;;;;10.70;95977.00;;;;8369488;28;20251;-75
2022/09/30 19:16:37;;;;;;;11.68;7.00;;;;;10.60;95979.00;;;;8375623;28;20250;-74
2022/09/30 19:20:42;;;;;;;10.18;6.28;;;;;10.50;95965.00;;;;8371641;28;20220;-73
2022/09/30 19:24:45;;;;;;;8.20;5.80;;;;;10.40;95979.00;;;;8368060;28;20225;-74
2022/09/30 19:28:48;;;;;;;13.05;6.00;;;;;10.20;95976.00;;;;8373938;28;20789;-74
2022/09/30 19:32:58;;;;;;;11.65;8.25;;;;;10.10;95964.00;;;;8376488;28;20255;-73
2022/09/30 19:37:02;;;;;;;11.68;6.50;;;;;10.00;95971.00;;;;8376699;28;20281;-73
2022/09/30 19:41:06;;;;;;;10.32;6.75;;;;;9.90;95950.00;;;;8364601;28;20233;-74
2022/09/30 19:45:09;;;;;;;12.80;7.28;;;;;9.70;95960.00;;;;8364616;28;20426;-74
2022/09/30 19:49:13;;;;;;;12.25;7.47;;;;;9.60;95962.00;;;;8371469;28;20255;-74
2022/09/30 19:53:18;;;;;;;13.35;7.57;;;;;9.50;95965.00;;;;8369156;28;20230;-75
2022/09/30 19:57:33;;;;;;;14.57;9.47;;;;;9.40;95956.00;;;;8369459;28;20251;-73
2022/09/30 20:01:36;;;;;;;17.15;9.77;;;;;9.30;95953.00;;;;8368833;28;20228;-72
2022/09/30 20:05:42;;;;;;;14.00;8.43;;;;;9.20;95948.00;;;;8372689;28;20223;-74
2022/09/30 20:09:47;;;;;;;14.03;8.80;;;;;9.00;95947.00;;;;8367068;28;20367;-74
2022/09/30 20:15:49;;;;;;;28.77;11.33;;;;;8.90;95950.00;;;;8374302;28;20220;-73
2022/09/30 20:18:15;;;;;;;20.38;10.27;;;;;8.90;95948.00;;;;8375068;28;20223;-73
2022/09/30 20:22:18;;;;;;;19.93;9.27;;;;;8.70;95946.00;;;;8361077;28;20231;-73
2022/09/30 20:26:22;;;;;;;16.67;9.60;;;;;8.70;95949.00;;;;8367390;28;20335;-73
2022/09/30 20:30:28;;;;;;;17.90;10.45;;;;;8.60;95950.00;;;;8368748;28;20220;-74
2022/09/30 20:34:32;;;;;;;20.35;11.43;;;;;8.60;95955.00;;;;8369197;28;20775;-74
2022/09/30 20:38:40;;;;;;;19.93;11.23;;;;;8.50;95941.00;;;;8362066;28;20309;-74
2022/09/30 20:42:45;;;;;;;22.38;12.02;;;;;8.40;95953.00;;;;8372966;28;20226;-73
2022/09/30 20:46:48;;;;;;;17.50;10.10;;;;;8.30;95953.00;;;;8375978;28;20909;-73
2022/09/30 20:50:51;;;;;;;17.90;9.80;;;;;8.30;95959.00;;;;8371343;28;20298;-73
2022/09/30 20:54:56;;;;;;;20.30;10.23;;;;;8.30;95967.00;;;;8364835;28;20236;-73
2022/09/30 20:59:01;;;;;;;21.67;11.37;;;;;8.20;95959.00;;;;8371348;28;20270;-73
2022/09/30 21:03:04;;;;;;;21.43;11.83;;;;;8.20;95966.00;;;;8372663;28;20247;-72
2022/09/30 21:07:07;;;;;;;20.10;11.67;;;;;8.10;95966.00;;;;8362567;28;20501;-73
2022/09/30 21:11:11;;;;;;;60.07;13.77;;;;;8.10;95977.00;;;;8366079;28;20236;-73